Time;durP1;ratioP1;P1;durP2;ratioP2;P2;SDS_P1;SDS_P2;PMS_P1;PMS_P2;Temp;Humidity;BMP_temperature;BMP_pressure;BME280_temperature;BME280_humidity;BME280_pressure;Samples;Min_cycle;Max_cycle;Signal;HPM_P1;HPM_P2
2022/02/28 00:01:43;;;;;;;30.63;23.97;;;;;;;;;;5064653;28;24410;-49
2022/02/28 00:04:08;;;;;;;28.70;23.40;;;;;;;;;;5065037;28;24410;-49
2022/02/28 00:06:33;;;;;;;31.53;22.93;;;;;;;;;;5067993;28;24414;-49
2022/02/28 00:08:58;;;;;;;32.75;24.05;;;;;;;;;;5061498;28;24430;-49
2022/02/28 00:11:24;;;;;;;33.80;23.80;;;;;;;;;;5065606;28;24892;-50
2022/02/28 00:13:49;;;;;;;29.92;23.60;;;;;;;;;;5064470;28;24529;-49
2022/02/28 00:16:14;;;;;;;32.22;23.67;;;;;;;;;;5068183;28;24807;-49
2022/02/28 00:18:39;;;;;;;33.07;22.90;;;;;;;;;;5065152;28;24468;-49
2022/02/28 00:21:04;;;;;;;32.43;23.77;;;;;;;;;;5065304;28;24417;-50
2022/02/28 00:23:30;;;;;;;31.70;24.40;;;;;;;;;;5064462;28;24948;-50
2022/02/28 00:25:55;;;;;;;32.33;24.48;;;;;;;;;;5065912;28;24429;-50
2022/02/28 00:28:20;;;;;;;37.30;28.20;;;;;;;;;;5073647;28;24419;-50
2022/02/28 00:30:46;;;;;;;35.65;25.60;;;;;;;;;;5068188;28;24446;-49
2022/02/28 00:33:11;;;;;;;33.33;24.97;;;;;;;;;;5068898;28;24414;-50
2022/02/28 00:35:36;;;;;;;33.72;24.40;;;;;;;;;;5068626;28;24415;-49
2022/02/28 00:38:02;;;;;;;31.90;24.20;;;;;;;;;;5068282;28;24473;-49
2022/02/28 00:40:27;;;;;;;31.43;23.50;;;;;;;;;;5068538;28;24500;-49
2022/02/28 00:42:52;;;;;;;32.67;24.00;;;;;;;;;;5068741;28;24441;-50
2022/02/28 00:45:17;;;;;;;34.20;24.33;;;;;;;;;;5068190;28;24410;-50
2022/02/28 00:47:42;;;;;;;32.20;23.55;;;;;;;;;;5071952;28;24441;-48
2022/02/28 00:50:09;;;;;;;36.33;24.57;;;;;;;;;;5069400;28;24560;-48
2022/02/28 00:52:34;;;;;;;32.17;24.02;;;;;;;;;;5070023;28;24406;-49
2022/02/28 00:55:00;;;;;;;30.33;23.13;;;;;;;;;;5067885;28;24423;-49
2022/02/28 00:57:25;;;;;;;31.80;24.25;;;;;;;;;;5068004;28;24423;-49
2022/02/28 00:59:50;;;;;;;31.70;23.37;;;;;;;;;;5071699;28;24446;-49
2022/02/28 01:02:15;;;;;;;32.53;23.70;;;;;;;;;;5067916;28;24403;-48
2022/02/28 01:04:41;;;;;;;33.00;24.10;;;;;;;;;;5068583;28;24541;-49
2022/02/28 01:07:06;;;;;;;29.57;23.53;;;;;;;;;;5066789;28;24534;-49
2022/02/28 01:09:31;;;;;;;30.60;24.23;;;;;;;;;;5070570;28;25142;-48
2022/02/28 01:11:56;;;;;;;30.93;23.80;;;;;;;;;;5068482;28;24433;-48
2022/02/28 01:14:21;;;;;;;32.63;24.20;;;;;;;;;;5068355;28;24887;-49
2022/02/28 01:16:47;;;;;;;33.00;24.10;;;;;;;;;;5067429;28;24438;-49
2022/02/28 01:19:12;;;;;;;31.73;23.40;;;;;;;;;;5068025;28;24990;-49
2022/02/28 01:21:37;;;;;;;32.20;24.02;;;;;;;;;;5077930;28;24463;-49
2022/02/28 01:24:02;;;;;;;31.80;23.93;;;;;;;;;;5067699;28;24415;-49
2022/02/28 01:26:27;;;;;;;31.87;23.87;;;;;;;;;;5066735;28;24445;-49
2022/02/28 01:28:53;;;;;;;31.33;23.63;;;;;;;;;;5067700;28;24468;-49
2022/02/28 01:31:18;;;;;;;29.08;22.92;;;;;;;;;;5070870;28;24506;-49
2022/02/28 01:33:43;;;;;;;33.08;23.30;;;;;;;;;;5067201;28;25076;-51
2022/02/28 01:36:08;;;;;;;35.70;25.30;;;;;;;;;;5065997;28;24429;-49
2022/02/28 01:38:33;;;;;;;32.20;24.00;;;;;;;;;;5064250;28;25002;-49
2022/02/28 01:40:58;;;;;;;32.70;23.50;;;;;;;;;;5067914;28;25036;-49
2022/02/28 01:43:24;;;;;;;29.87;23.30;;;;;;;;;;5074307;28;24426;-49
2022/02/28 01:45:49;;;;;;;31.60;22.90;;;;;;;;;;5069096;28;24415;-49
2022/02/28 01:48:14;;;;;;;30.03;22.30;;;;;;;;;;5064053;28;25205;-50
2022/02/28 01:50:39;;;;;;;30.43;23.40;;;;;;;;;;5065702;28;24423;-49
2022/02/28 01:53:04;;;;;;;29.20;22.60;;;;;;;;;;5062261;28;24457;-50
2022/02/28 01:55:30;;;;;;;29.92;22.30;;;;;;;;;;5065798;28;24423;-49
2022/02/28 01:57:55;;;;;;;29.40;23.10;;;;;;;;;;5066021;28;25000;-49
2022/02/28 02:00:21;;;;;;;31.93;23.77;;;;;;;;;;5065441;28;24935;-50
2022/02/28 02:02:47;;;;;;;30.53;22.97;;;;;;;;;;5069087;28;25055;-50
2022/02/28 02:05:12;;;;;;;31.25;22.95;;;;;;;;;;5068156;28;24501;-49
2022/02/28 02:07:38;;;;;;;30.05;22.35;;;;;;;;;;5065693;28;24514;-50
2022/02/28 02:10:04;;;;;;;31.00;23.10;;;;;;;;;;5065917;28;24507;-49
2022/02/28 02:12:30;;;;;;;32.33;23.27;;;;;;;;;;5068094;28;24451;-50
2022/02/28 02:14:55;;;;;;;29.30;23.13;;;;;;;;;;5061939;28;24437;-50
2022/02/28 02:17:20;;;;;;;31.57;23.27;;;;;;;;;;5064376;28;24418;-50
2022/02/28 02:19:46;;;;;;;28.60;22.50;;;;;;;;;;5065038;28;24434;-49
2022/02/28 02:22:11;;;;;;;31.60;22.90;;;;;;;;;;5070137;28;24579;-50
2022/02/28 02:24:36;;;;;;;28.80;21.90;;;;;;;;;;5067740;28;25002;-49
2022/02/28 02:27:01;;;;;;;29.57;22.60;;;;;;;;;;5068302;28;24414;-50
2022/02/28 02:29:27;;;;;;;30.43;23.30;;;;;;;;;;5068899;28;24441;-49
2022/02/28 02:31:52;;;;;;;31.60;23.63;;;;;;;;;;5061959;28;24715;-49
2022/02/28 02:34:17;;;;;;;30.30;22.80;;;;;;;;;;5066602;28;24437;-49
2022/02/28 02:36:42;;;;;;;30.12;23.42;;;;;;;;;;5064986;28;24415;-49
2022/02/28 02:39:08;;;;;;;30.55;22.27;;;;;;;;;;5064671;28;24863;-49
2022/02/28 02:41:33;;;;;;;29.70;22.40;;;;;;;;;;5061942;28;24429;-51
2022/02/28 02:43:59;;;;;;;28.50;22.65;;;;;;;;;;5071364;28;24413;-49
2022/02/28 02:46:24;;;;;;;31.17;23.60;;;;;;;;;;5065217;28;24407;-49
2022/02/28 02:48:49;;;;;;;31.03;23.70;;;;;;;;;;5062883;28;24475;-50
2022/02/28 02:51:16;;;;;;;31.65;22.50;;;;;;;;;;5063035;28;24415;-49
2022/02/28 02:53:41;;;;;;;30.10;22.43;;;;;;;;;;5063546;28;25088;-50
2022/02/28 02:56:07;;;;;;;30.77;22.20;;;;;;;;;;5065173;28;24580;-50
2022/02/28 02:58:32;;;;;;;30.80;23.20;;;;;;;;;;5071554;28;24430;-49
2022/02/28 03:00:57;;;;;;;31.73;23.93;;;;;;;;;;5065060;28;24499;-49
2022/02/28 03:03:22;;;;;;;30.80;23.57;;;;;;;;;;5064235;28;24889;-49
2022/02/28 03:05:48;;;;;;;34.20;24.02;;;;;;;;;;5064310;28;24411;-49
2022/02/28 03:08:14;;;;;;;33.08;23.75;;;;;;;;;;5064488;28;24423;-50
2022/02/28 03:10:39;;;;;;;32.42;23.50;;;;;;;;;;5066014;28;24472;-50
2022/02/28 03:13:04;;;;;;;30.10;23.10;;;;;;;;;;5063960;28;25206;-50
2022/02/28 03:15:30;;;;;;;28.90;22.93;;;;;;;;;;5069400;28;24972;-50
2022/02/28 03:17:55;;;;;;;30.27;22.20;;;;;;;;;;5062628;28;24515;-50
2022/02/28 03:20:20;;;;;;;32.70;23.50;;;;;;;;;;5067612;28;24737;-50
2022/02/28 03:22:45;;;;;;;31.40;22.90;;;;;;;;;;5062758;28;24443;-50
2022/02/28 03:25:10;;;;;;;31.20;23.80;;;;;;;;;;5064364;28;25201;-48
2022/02/28 03:27:36;;;;;;;29.83;23.60;;;;;;;;;;5067851;28;24426;-49
2022/02/28 03:30:02;;;;;;;34.50;24.60;;;;;;;;;;5073889;28;25126;-49
2022/02/28 03:32:27;;;;;;;31.42;23.73;;;;;;;;;;5062382;28;24536;-49
2022/02/28 03:34:52;;;;;;;28.73;23.27;;;;;;;;;;5063308;28;24446;-49
2022/02/28 03:37:17;;;;;;;33.97;23.88;;;;;;;;;;5073225;28;24912;-49
2022/02/28 03:39:42;;;;;;;29.52;22.45;;;;;;;;;;5065249;28;24427;-49
2022/02/28 03:42:08;;;;;;;31.38;22.95;;;;;;;;;;5063223;28;24414;-49
2022/02/28 03:44:33;;;;;;;30.00;23.10;;;;;;;;;;5065396;28;24760;-49
2022/02/28 03:46:58;;;;;;;31.47;23.87;;;;;;;;;;5064332;28;24776;-49
2022/02/28 03:49:23;;;;;;;32.35;23.60;;;;;;;;;;5064659;28;24422;-49
2022/02/28 03:51:48;;;;;;;31.70;23.30;;;;;;;;;;5073967;28;24502;-50
2022/02/28 03:54:14;;;;;;;31.27;23.80;;;;;;;;;;5065446;28;24417;-49
2022/02/28 03:56:40;;;;;;;30.13;23.80;;;;;;;;;;5047332;28;24421;-50
2022/02/28 03:59:05;;;;;;;31.80;23.30;;;;;;;;;;5064872;28;25007;-49
2022/02/28 04:01:31;;;;;;;34.30;24.07;;;;;;;;;;5068641;28;24454;-49
2022/02/28 04:03:56;;;;;;;34.20;24.58;;;;;;;;;;5072641;28;24944;-48
2022/02/28 04:06:21;;;;;;;32.28;22.50;;;;;;;;;;5071710;28;24407;-50
2022/02/28 04:08:46;;;;;;;31.20;23.17;;;;;;;;;;5073695;28;24418;-50
2022/02/28 04:11:12;;;;;;;32.78;24.30;;;;;;;;;;5071112;28;24601;-49
2022/02/28 04:13:37;;;;;;;30.10;22.73;;;;;;;;;;5070838;28;24415;-49
2022/02/28 04:16:02;;;;;;;31.30;23.07;;;;;;;;;;5071318;28;24441;-49
2022/02/28 04:18:29;;;;;;;34.53;23.37;;;;;;;;;;5075661;28;24460;-50
2022/02/28 04:20:54;;;;;;;33.83;23.03;;;;;;;;;;5075306;28;24984;-49
2022/02/28 04:23:19;;;;;;;30.13;23.27;;;;;;;;;;5071074;28;24413;-50
2022/02/28 04:25:44;;;;;;;32.37;22.90;;;;;;;;;;5075110;28;24554;-49
2022/02/28 04:28:09;;;;;;;31.05;23.23;;;;;;;;;;5070716;28;24414;-50
2022/02/28 04:30:35;;;;;;;29.45;22.17;;;;;;;;;;5078831;28;24410;-49
2022/02/28 04:33:00;;;;;;;33.10;23.60;;;;;;;;;;5077819;28;24488;-50
2022/02/28 04:35:25;;;;;;;31.48;24.00;;;;;;;;;;5071595;28;24403;-49
2022/02/28 04:37:50;;;;;;;30.92;23.58;;;;;;;;;;5071592;28;24426;-49
2022/02/28 04:40:15;;;;;;;32.53;23.90;;;;;;;;;;5071667;28;24426;-50
2022/02/28 04:42:40;;;;;;;33.80;24.20;;;;;;;;;;5075049;28;24548;-50
2022/02/28 04:45:06;;;;;;;31.95;23.40;;;;;;;;;;5071004;28;24456;-49
2022/02/28 04:47:31;;;;;;;28.97;21.80;;;;;;;;;;5071539;28;24434;-49
2022/02/28 04:49:57;;;;;;;28.73;21.48;;;;;;;;;;5071792;28;24827;-50
2022/02/28 04:52:22;;;;;;;27.70;21.70;;;;;;;;;;5071551;28;24988;-49
2022/02/28 04:54:47;;;;;;;31.00;23.23;;;;;;;;;;5071305;28;24517;-49
2022/02/28 04:57:12;;;;;;;30.70;22.60;;;;;;;;;;5087086;28;24430;-49
2022/02/28 04:59:37;;;;;;;30.08;22.38;;;;;;;;;;5071375;28;24813;-50
2022/02/28 05:02:02;;;;;;;30.15;22.65;;;;;;;;;;5072107;28;24399;-50
2022/02/28 05:04:28;;;;;;;29.37;21.30;;;;;;;;;;5073962;28;24472;-50
2022/02/28 05:06:53;;;;;;;30.90;23.05;;;;;;;;;;5074687;28;24493;-50
2022/02/28 05:09:18;;;;;;;31.23;23.13;;;;;;;;;;5085122;28;24447;-49
2022/02/28 05:11:43;;;;;;;29.88;22.08;;;;;;;;;;5071990;28;24460;-50
2022/02/28 05:14:09;;;;;;;32.60;22.48;;;;;;;;;;5065050;28;24753;-50
2022/02/28 05:16:34;;;;;;;28.65;21.70;;;;;;;;;;5068548;28;24438;-49
2022/02/28 05:18:59;;;;;;;29.93;22.53;;;;;;;;;;5071081;28;24505;-50
2022/02/28 05:21:25;;;;;;;30.57;22.23;;;;;;;;;;5075113;28;24433;-49
2022/02/28 05:23:50;;;;;;;29.30;22.42;;;;;;;;;;5068971;28;24491;-50
2022/02/28 05:26:15;;;;;;;32.85;24.30;;;;;;;;;;5057559;28;24426;-50
2022/02/28 05:28:40;;;;;;;32.65;22.50;;;;;;;;;;5067366;28;24414;-50
2022/02/28 05:31:05;;;;;;;30.00;22.43;;;;;;;;;;5067972;28;24549;-50
2022/02/28 05:33:30;;;;;;;31.20;23.27;;;;;;;;;;5072950;28;24433;-50
2022/02/28 05:35:55;;;;;;;31.92;24.00;;;;;;;;;;5071937;28;24403;-50
2022/02/28 05:38:21;;;;;;;31.10;22.67;;;;;;;;;;5064586;28;24442;-50
2022/02/28 05:40:46;;;;;;;29.70;22.33;;;;;;;;;;5064449;28;24497;-50
2022/02/28 05:43:11;;;;;;;31.27;23.23;;;;;;;;;;5062974;28;24507;-49
2022/02/28 05:45:37;;;;;;;34.80;24.27;;;;;;;;;;5065622;28;24395;-50
2022/02/28 05:48:03;;;;;;;34.50;24.40;;;;;;;;;;5065087;28;24461;-50
2022/02/28 05:50:29;;;;;;;34.92;23.60;;;;;;;;;;5064513;28;24456;-50
2022/02/28 05:52:54;;;;;;;32.30;21.00;;;;;;;;;;5069669;28;24855;-51
2022/02/28 05:55:19;;;;;;;31.63;23.08;;;;;;;;;;5064819;28;24542;-51
2022/02/28 05:57:44;;;;;;;33.60;23.30;;;;;;;;;;5066039;28;24477;-49
2022/02/28 06:00:09;;;;;;;33.93;22.87;;;;;;;;;;5064392;28;24770;-50
2022/02/28 06:02:35;;;;;;;35.85;25.10;;;;;;;;;;5067709;28;24785;-49
2022/02/28 06:05:00;;;;;;;36.13;22.90;;;;;;;;;;5064442;28;24415;-50
2022/02/28 06:07:25;;;;;;;34.45;24.65;;;;;;;;;;5069212;28;24500;-50
2022/02/28 06:09:50;;;;;;;31.63;24.30;;;;;;;;;;5067535;28;24839;-49
2022/02/28 06:12:15;;;;;;;31.17;22.80;;;;;;;;;;5071458;28;24430;-50
2022/02/28 06:14:40;;;;;;;30.27;22.35;;;;;;;;;;5052938;28;24510;-50
2022/02/28 06:17:06;;;;;;;32.13;22.30;;;;;;;;;;5065616;28;24429;-50
2022/02/28 06:19:31;;;;;;;30.20;20.13;;;;;;;;;;5067501;28;24427;-50
2022/02/28 06:21:57;;;;;;;30.13;21.57;;;;;;;;;;5069722;28;24494;-50
2022/02/28 06:24:22;;;;;;;32.28;21.30;;;;;;;;;;5064552;28;25013;-51
2022/02/28 06:26:47;;;;;;;31.13;22.08;;;;;;;;;;5073439;28;24418;-50
2022/02/28 06:29:12;;;;;;;29.60;21.33;;;;;;;;;;5066308;28;24403;-51
2022/02/28 06:31:43;;;;;;;30.40;22.10;;;;;;;;;;5066506;28;24421;-51
2022/02/28 06:34:08;;;;;;;29.25;22.42;;;;;;;;;;5066574;28;24375;-51
2022/02/28 06:36:33;;;;;;;34.47;21.77;;;;;;;;;;5066597;28;24401;-50
2022/02/28 06:38:59;;;;;;;34.27;22.47;;;;;;;;;;5066642;28;24476;-51
2022/02/28 06:41:24;;;;;;;31.23;22.33;;;;;;;;;;5065811;28;24796;-50
2022/02/28 06:43:51;;;;;;;31.37;22.10;;;;;;;;;;5065918;28;24789;-51
2022/02/28 06:46:16;;;;;;;33.00;23.00;;;;;;;;;;5079851;28;24761;-50
2022/02/28 06:48:41;;;;;;;30.60;21.52;;;;;;;;;;5076068;28;24799;-51
2022/02/28 06:51:06;;;;;;;31.30;22.42;;;;;;;;;;5073398;28;24464;-51
2022/02/28 06:53:31;;;;;;;30.97;22.60;;;;;;;;;;5066198;28;24422;-50
2022/02/28 06:55:57;;;;;;;33.10;23.50;;;;;;;;;;5086078;28;24402;-50
2022/02/28 06:58:22;;;;;;;32.27;22.53;;;;;;;;;;5066314;28;24415;-51
2022/02/28 07:00:49;;;;;;;29.90;21.20;;;;;;;;;;5077890;28;24991;-51
2022/02/28 07:03:14;;;;;;;30.50;21.35;;;;;;;;;;5061789;28;24411;-51
2022/02/28 07:05:40;;;;;;;30.23;22.07;;;;;;;;;;5064033;28;24469;-50
2022/02/28 07:08:06;;;;;;;27.73;20.87;;;;;;;;;;5062339;28;25002;-50
2022/02/28 07:10:32;;;;;;;30.48;22.02;;;;;;;;;;5050068;28;24537;-50
2022/02/28 07:12:57;;;;;;;30.88;22.55;;;;;;;;;;5068206;28;24956;-50
2022/02/28 07:15:23;;;;;;;31.73;22.20;;;;;;;;;;5068101;28;24510;-51
2022/02/28 07:17:48;;;;;;;28.23;21.45;;;;;;;;;;5063095;28;24446;-50
2022/02/28 07:20:13;;;;;;;28.75;20.95;;;;;;;;;;5062653;28;24416;-50
2022/02/28 07:22:39;;;;;;;29.13;21.10;;;;;;;;;;5069921;28;24777;-51
2022/02/28 07:25:04;;;;;;;27.90;20.27;;;;;;;;;;5066919;28;24991;-51
2022/02/28 07:27:29;;;;;;;31.30;20.97;;;;;;;;;;5065853;28;24725;-50
2022/02/28 07:29:54;;;;;;;26.83;20.00;;;;;;;;;;5065693;28;24468;-50
2022/02/28 07:32:20;;;;;;;25.40;19.90;;;;;;;;;;5053414;28;24928;-50
2022/02/28 07:34:45;;;;;;;26.33;19.40;;;;;;;;;;5052645;28;24535;-49
2022/02/28 07:37:10;;;;;;;27.42;20.30;;;;;;;;;;5066499;28;24529;-50
2022/02/28 07:39:35;;;;;;;30.90;20.60;;;;;;;;;;5063999;28;24438;-51
2022/02/28 07:42:00;;;;;;;27.70;19.60;;;;;;;;;;5066398;28;24476;-51
2022/02/28 07:44:27;;;;;;;27.42;19.27;;;;;;;;;;5064249;28;24956;-50
2022/02/28 07:46:52;;;;;;;29.00;20.00;;;;;;;;;;5065588;28;24779;-51
2022/02/28 07:49:17;;;;;;;25.90;18.30;;;;;;;;;;5065506;28;24395;-51
2022/02/28 07:51:42;;;;;;;27.40;19.08;;;;;;;;;;5065714;28;24960;-50
2022/02/28 07:54:08;;;;;;;25.30;18.70;;;;;;;;;;5065120;28;24464;-51
2022/02/28 07:56:33;;;;;;;24.40;18.40;;;;;;;;;;5065808;28;24465;-50
2022/02/28 07:58:58;;;;;;;27.73;19.60;;;;;;;;;;5065785;28;24418;-51
2022/02/28 08:01:23;;;;;;;25.50;18.07;;;;;;;;;;5065631;28;24985;-50
2022/02/28 08:03:48;;;;;;;27.95;18.80;;;;;;;;;;5065044;28;24394;-51
2022/02/28 08:06:13;;;;;;;23.45;16.83;;;;;;;;;;5065137;28;24483;-50
2022/02/28 08:08:39;;;;;;;21.00;15.40;;;;;;;;;;5065897;28;24749;-50
2022/02/28 08:11:04;;;;;;;25.30;16.10;;;;;;;;;;5065687;28;24390;-50
2022/02/28 08:13:29;;;;;;;22.80;16.17;;;;;;;;;;5065146;28;24746;-50
2022/02/28 08:15:55;;;;;;;21.63;15.45;;;;;;;;;;5065989;28;24880;-50
2022/02/28 08:18:20;;;;;;;21.20;15.73;;;;;;;;;;5065611;28;24428;-51
2022/02/28 08:20:45;;;;;;;22.70;15.73;;;;;;;;;;5065829;28;24415;-50
2022/02/28 08:23:10;;;;;;;22.73;15.87;;;;;;;;;;5065628;28;24482;-51
2022/02/28 08:25:35;;;;;;;21.73;15.20;;;;;;;;;;5065405;28;24429;-51
2022/02/28 08:28:00;;;;;;;22.35;15.43;;;;;;;;;;5065985;28;24544;-51
2022/02/28 08:30:26;;;;;;;22.08;15.05;;;;;;;;;;5065186;28;24413;-50
2022/02/28 08:32:51;;;;;;;23.90;15.60;;;;;;;;;;5065458;28;24947;-51
2022/02/28 08:35:18;;;;;;;21.30;14.73;;;;;;;;;;5065189;28;24492;-51
2022/02/28 08:37:43;;;;;;;24.70;17.52;;;;;;;;;;5065684;28;24409;-50
2022/02/28 08:40:08;;;;;;;24.93;16.03;;;;;;;;;;5065407;28;24476;-50
2022/02/28 08:42:34;;;;;;;24.47;16.33;;;;;;;;;;5065519;28;24733;-51
2022/02/28 08:45:00;;;;;;;22.13;16.07;;;;;;;;;;5065358;28;24486;-51
2022/02/28 08:47:25;;;;;;;24.52;17.30;;;;;;;;;;5065360;28;24411;-50
2022/02/28 08:49:50;;;;;;;25.07;17.30;;;;;;;;;;5067397;28;24826;-50
2022/02/28 08:52:15;;;;;;;22.80;16.37;;;;;;;;;;5069403;28;24810;-50
2022/02/28 08:54:40;;;;;;;23.17;15.90;;;;;;;;;;5069057;28;24410;-50
2022/02/28 08:57:06;;;;;;;25.02;16.17;;;;;;;;;;5068955;28;24502;-50
2022/02/28 08:59:31;;;;;;;26.03;17.17;;;;;;;;;;5068896;28;24383;-50
2022/02/28 09:01:56;;;;;;;23.50;15.50;;;;;;;;;;5069075;28;24479;-50
2022/02/28 09:04:22;;;;;;;18.67;14.43;;;;;;;;;;5068874;28;25270;-50
2022/02/28 09:06:48;;;;;;;21.60;15.50;;;;;;;;;;5068852;28;24516;-51
2022/02/28 09:09:13;;;;;;;20.08;15.40;;;;;;;;;;5069097;28;24406;-51
2022/02/28 09:11:38;;;;;;;20.57;14.70;;;;;;;;;;5068767;28;24395;-50
2022/02/28 09:14:03;;;;;;;21.73;15.55;;;;;;;;;;5069049;28;24469;-51
2022/02/28 09:16:31;;;;;;;23.63;16.23;;;;;;;;;;5068466;28;24395;-51
2022/02/28 09:18:56;;;;;;;21.55;15.55;;;;;;;;;;5068327;28;24508;-50
2022/02/28 09:21:21;;;;;;;23.55;16.30;;;;;;;;;;5068913;28;24917;-51
2022/02/28 09:23:46;;;;;;;23.13;16.60;;;;;;;;;;5068269;28;24519;-50
2022/02/28 09:26:11;;;;;;;22.27;15.50;;;;;;;;;;5068810;28;24406;-51
2022/02/28 09:28:36;;;;;;;22.08;15.10;;;;;;;;;;5068286;28;24419;-50
2022/02/28 09:31:02;;;;;;;23.57;16.43;;;;;;;;;;5069008;28;24398;-51
2022/02/28 09:33:27;;;;;;;20.47;15.60;;;;;;;;;;5068189;28;24390;-51
2022/02/28 09:35:52;;;;;;;20.92;14.98;;;;;;;;;;5067970;28;24982;-50
2022/02/28 09:38:17;;;;;;;21.70;15.40;;;;;;;;;;5068546;28;24426;-51
2022/02/28 09:40:43;;;;;;;20.80;15.60;;;;;;;;;;5068138;28;24462;-51
2022/02/28 09:43:08;;;;;;;24.40;17.95;;;;;;;;;;5068275;28;24410;-50
2022/02/28 09:45:34;;;;;;;24.40;17.20;;;;;;;;;;5068097;28;24452;-51
2022/02/28 09:47:59;;;;;;;23.27;16.00;;;;;;;;;;5068213;28;24460;-50
2022/02/28 09:50:25;;;;;;;21.67;15.90;;;;;;;;;;5068429;28;24479;-50
2022/02/28 09:52:51;;;;;;;23.98;17.92;;;;;;;;;;5068078;28;24416;-50
2022/02/28 09:55:16;;;;;;;22.63;17.20;;;;;;;;;;5068397;28;24410;-51
2022/02/28 09:57:50;;;;;;;21.40;16.50;;;;;;;;;;5067436;28;24426;-50
2022/02/28 10:00:20;;;;;;;23.08;16.77;;;;;;;;;;5061670;28;24424;-50
2022/02/28 10:02:45;;;;;;;22.00;16.08;;;;;;;;;;5056318;28;24480;-51
2022/02/28 10:05:10;;;;;;;19.50;15.20;;;;;;;;;;5054774;28;24500;-51
2022/02/28 10:07:46;;;;;;;20.50;15.10;;;;;;;;;;5067856;28;24920;-50
2022/02/28 10:10:12;;;;;;;21.65;16.33;;;;;;;;;;5067871;28;24395;-50
2022/02/28 10:12:38;;;;;;;21.58;14.93;;;;;;;;;;5067377;28;24789;-50
2022/02/28 10:15:05;;;;;;;22.93;16.60;;;;;;;;;;5067109;28;24490;-51
2022/02/28 10:17:47;;;;;;;21.83;15.90;;;;;;;;;;5066861;28;24558;-50
2022/02/28 10:20:13;;;;;;;20.90;15.70;;;;;;;;;;5067282;28;24478;-51
2022/02/28 10:22:38;;;;;;;20.67;14.68;;;;;;;;;;5067200;28;24836;-50
2022/02/28 10:25:03;;;;;;;22.30;16.00;;;;;;;;;;5067627;28;24394;-50
2022/02/28 10:27:29;;;;;;;19.20;13.80;;;;;;;;;;5067287;28;24936;-50
2022/02/28 10:29:55;;;;;;;21.65;15.90;;;;;;;;;;5066727;28;24422;-50
2022/02/28 10:32:25;;;;;;;18.55;14.85;;;;;;;;;;5066879;28;24941;-50
2022/02/28 10:37:45;;;;;;;19.67;15.50;;;;;;;;;;5067256;28;24493;-50
2022/02/28 10:40:11;;;;;;;18.52;15.13;;;;;;;;;;5066315;28;24984;-50
2022/02/28 10:42:43;;;;;;;22.40;15.63;;;;;;;;;;5066821;28;24402;-50
2022/02/28 10:45:19;;;;;;;22.45;15.63;;;;;;;;;;5067155;28;24754;-50
2022/02/28 10:47:45;;;;;;;18.88;14.18;;;;;;;;;;5066563;28;24411;-50
2022/02/28 10:50:10;;;;;;;17.45;12.85;;;;;;;;;;5067239;28;24592;-49
2022/02/28 10:52:53;;;;;;;17.83;13.20;;;;;;;;;;5066546;28;24506;-50
2022/02/28 10:55:29;;;;;;;19.95;14.60;;;;;;;;;;5067006;28;24417;-50
2022/02/28 10:58:04;;;;;;;16.85;13.30;;;;;;;;;;5066157;28;24457;-50
2022/02/28 11:00:29;;;;;;;17.98;13.30;;;;;;;;;;5066730;28;24411;-50
2022/02/28 11:03:01;;;;;;;19.27;13.00;;;;;;;;;;5066267;28;24464;-50
2022/02/28 11:05:27;;;;;;;19.85;13.90;;;;;;;;;;5066898;28;24410;-50
2022/02/28 11:07:58;;;;;;;18.05;12.50;;;;;;;;;;5066134;28;24414;-50
2022/02/28 11:10:23;;;;;;;16.15;12.60;;;;;;;;;;5065912;28;24397;-50
2022/02/28 11:12:49;;;;;;;18.90;13.63;;;;;;;;;;5065994;28;24936;-49
2022/02/28 11:15:18;;;;;;;17.50;13.40;;;;;;;;;;5066638;28;24436;-50
2022/02/28 11:17:46;;;;;;;19.10;13.25;;;;;;;;;;5065626;28;24531;-50
2022/02/28 11:20:12;;;;;;;17.90;13.20;;;;;;;;;;5066341;28;24386;-51
2022/02/28 11:22:39;;;;;;;20.05;14.05;;;;;;;;;;5066439;28;24387;-50
2022/02/28 11:25:05;;;;;;;15.15;11.68;;;;;;;;;;5066350;28;24957;-50
2022/02/28 11:27:31;;;;;;;14.80;11.10;;;;;;;;;;5066091;28;24436;-50
2022/02/28 11:29:58;;;;;;;15.07;10.85;;;;;;;;;;5066144;28;25125;-51
2022/02/28 11:32:23;;;;;;;16.02;11.50;;;;;;;;;;5065748;28;24461;-51
2022/02/28 11:34:50;;;;;;;13.10;10.13;;;;;;;;;;5066095;28;24916;-50
2022/02/28 11:37:19;;;;;;;13.93;10.50;;;;;;;;;;5066256;28;24411;-51
2022/02/28 11:39:45;;;;;;;13.10;9.75;;;;;;;;;;5065367;28;24967;-51
2022/02/28 11:42:10;;;;;;;15.02;10.45;;;;;;;;;;5065856;28;24395;-50
2022/02/28 11:44:37;;;;;;;15.23;11.10;;;;;;;;;;5065827;28;24470;-51
2022/02/28 11:47:04;;;;;;;15.40;10.80;;;;;;;;;;5065914;28;24943;-50
2022/02/28 11:49:43;;;;;;;15.00;11.43;;;;;;;;;;5065514;28;24478;-49
2022/02/28 11:52:27;;;;;;;13.25;10.73;;;;;;;;;;5065252;28;24967;-50
2022/02/28 11:54:57;;;;;;;15.30;11.07;;;;;;;;;;5065690;28;24403;-49
2022/02/28 11:57:42;;;;;;;12.52;9.50;;;;;;;;;;5065492;28;24470;-51
2022/02/28 12:00:08;;;;;;;11.07;8.80;;;;;;;;;;5065739;28;24500;-51
2022/02/28 12:02:33;;;;;;;13.23;9.65;;;;;;;;;;5065306;28;24486;-49
2022/02/28 12:04:59;;;;;;;11.85;8.93;;;;;;;;;;5065613;28;24399;-50
2022/02/28 12:07:31;;;;;;;11.60;8.30;;;;;;;;;;5065227;28;24407;-50
2022/02/28 12:10:00;;;;;;;10.63;7.97;;;;;;;;;;5065235;28;24789;-50
2022/02/28 12:12:36;;;;;;;9.80;7.20;;;;;;;;;;5065496;28;24917;-50
2022/02/28 12:15:02;;;;;;;9.60;7.57;;;;;;;;;;5065458;28;24587;-51
2022/02/28 12:17:34;;;;;;;9.55;7.43;;;;;;;;;;5065252;28;24521;-50
2022/02/28 12:20:15;;;;;;;10.55;7.70;;;;;;;;;;5065495;28;24812;-50
2022/02/28 12:22:52;;;;;;;9.38;7.40;;;;;;;;;;5067848;28;24394;-50
2022/02/28 12:25:36;;;;;;;10.25;8.13;;;;;;;;;;5069951;28;24414;-49
2022/02/28 12:28:21;;;;;;;10.88;8.05;;;;;;;;;;5069070;28;25002;-50
2022/02/28 12:30:48;;;;;;;10.00;7.72;;;;;;;;;;5018072;28;24421;-50
2022/02/28 12:33:14;;;;;;;10.07;7.50;;;;;;;;;;5069389;28;24441;-49
2022/02/28 12:35:50;;;;;;;9.15;7.80;;;;;;;;;;5069348;28;24881;-49
2022/02/28 12:38:15;;;;;;;11.55;8.25;;;;;;;;;;5069155;28;24576;-51
2022/02/28 12:40:50;;;;;;;10.70;8.20;;;;;;;;;;5068813;28;24522;-50
2022/02/28 12:43:18;;;;;;;12.95;8.70;;;;;;;;;;5068980;28;24390;-49
2022/02/28 12:45:44;;;;;;;11.63;8.20;;;;;;;;;;5069467;28;24390;-49
2022/02/28 12:48:10;;;;;;;10.43;7.70;;;;;;;;;;5068605;28;24921;-51
2022/02/28 12:50:35;;;;;;;11.52;7.75;;;;;;;;;;5068128;28;24422;-50
2022/02/28 12:53:00;;;;;;;10.00;7.33;;;;;;;;;;5068955;28;24410;-50
2022/02/28 12:55:25;;;;;;;9.68;7.45;;;;;;;;;;5069095;28;24394;-50
2022/02/28 12:57:50;;;;;;;10.13;7.30;;;;;;;;;;5068701;28;24441;-49
2022/02/28 13:00:16;;;;;;;9.20;7.00;;;;;;;;;;5069250;28;24957;-50
2022/02/28 13:02:41;;;;;;;9.90;7.30;;;;;;;;;;5068198;28;24410;-50
2022/02/28 13:05:06;;;;;;;10.52;7.47;;;;;;;;;;5068933;28;24398;-49
2022/02/28 13:07:32;;;;;;;9.88;6.97;;;;;;;;;;5068945;28;24498;-49
2022/02/28 13:09:58;;;;;;;8.88;6.20;;;;;;;;;;5068879;28;24753;-50
2022/02/28 13:12:24;;;;;;;7.32;6.10;;;;;;;;;;5068170;28;24410;-50
2022/02/28 13:14:49;;;;;;;8.43;6.50;;;;;;;;;;5068117;28;24580;-49
2022/02/28 13:17:15;;;;;;;9.07;6.60;;;;;;;;;;5068632;28;24991;-50
2022/02/28 13:19:40;;;;;;;8.57;5.57;;;;;;;;;;5068493;28;24429;-50
2022/02/28 13:22:06;;;;;;;7.97;6.10;;;;;;;;;;5068094;28;24867;-51
2022/02/28 13:24:35;;;;;;;7.68;5.70;;;;;;;;;;5068419;28;24398;-50
2022/02/28 13:27:01;;;;;;;8.52;5.78;;;;;;;;;;5068378;28;24390;-51
2022/02/28 13:29:27;;;;;;;6.68;5.60;;;;;;;;;;5068789;28;24470;-50
2022/02/28 13:32:06;;;;;;;9.30;6.38;;;;;;;;;;5068242;28;24814;-50
2022/02/28 13:34:31;;;;;;;6.50;5.00;;;;;;;;;;5066775;28;24415;-50
2022/02/28 13:36:57;;;;;;;8.02;5.40;;;;;;;;;;5068183;28;24394;-50
2022/02/28 13:39:28;;;;;;;7.50;5.50;;;;;;;;;;5068019;28;24808;-50
2022/02/28 13:41:55;;;;;;;8.00;5.43;;;;;;;;;;5068160;28;24947;-57
2022/02/28 13:44:21;;;;;;;6.50;4.90;;;;;;;;;;5067625;28;24419;-50
2022/02/28 13:46:52;;;;;;;6.60;5.00;;;;;;;;;;5067705;28;24493;-50
2022/02/28 13:49:17;;;;;;;6.70;4.80;;;;;;;;;;5048390;28;24465;-50
2022/02/28 13:51:42;;;;;;;6.80;5.55;;;;;;;;;;5048006;28;24395;-51
2022/02/28 13:54:09;;;;;;;7.68;5.80;;;;;;;;;;5055397;28;24429;-50
2022/02/28 13:56:34;;;;;;;8.18;5.20;;;;;;;;;;5068023;28;24403;-49
2022/02/28 13:59:09;;;;;;;7.88;6.10;;;;;;;;;;5067693;28;24426;-50
2022/02/28 14:01:35;;;;;;;8.70;5.85;;;;;;;;;;5067881;28;24687;-50
2022/02/28 14:04:01;;;;;;;7.82;5.80;;;;;;;;;;5067530;28;24444;-50
2022/02/28 14:06:27;;;;;;;8.60;6.07;;;;;;;;;;5067349;28;24514;-50
2022/02/28 14:08:52;;;;;;;10.50;7.07;;;;;;;;;;5067678;28;24490;-49
2022/02/28 14:11:26;;;;;;;9.38;6.78;;;;;;;;;;5067882;28;24462;-50
2022/02/28 14:13:52;;;;;;;9.98;7.60;;;;;;;;;;5067156;28;24430;-50
2022/02/28 14:16:20;;;;;;;9.45;7.00;;;;;;;;;;5067738;28;24418;-50
2022/02/28 14:19:12;;;;;;;11.35;7.57;;;;;;;;;;5066993;28;24437;-50